createdAt,value
2024-01-22T00:01:27.164Z,1.64
2024-01-22T00:03:54.690Z,1.64
2024-01-22T00:06:22.284Z,1.62
2024-01-22T00:08:49.811Z,1.60
2024-01-22T00:11:17.395Z,1.62
2024-01-22T00:13:46.239Z,1.66
2024-01-22T00:16:14.027Z,1.62
2024-01-22T00:18:41.621Z,1.66
2024-01-22T00:21:09.469Z,1.68
2024-01-22T00:23:36.963Z,1.64
2024-01-22T00:26:04.689Z,1.71
2024-01-22T00:28:32.228Z,1.74
2024-01-22T00:31:01.042Z,1.82
2024-01-22T00:33:28.659Z,1.82
2024-01-22T00:35:56.551Z,1.83
2024-01-22T00:38:24.111Z,1.89
2024-01-22T00:40:51.681Z,1.96
2024-01-22T00:43:19.268Z,1.99
2024-01-22T00:45:46.830Z,2.13
2024-01-22T00:48:15.772Z,2.10
2024-01-22T00:50:43.663Z,2.09
2024-01-22T00:53:11.218Z,2.05
2024-01-22T00:55:38.833Z,2.03
2024-01-22T00:58:06.891Z,2.10
2024-01-22T01:00:34.884Z,2.11
2024-01-22T01:03:02.513Z,2.11
2024-01-22T01:05:31.383Z,2.12
2024-01-22T01:07:58.953Z,2.05
2024-01-22T01:10:26.660Z,2.04
2024-01-22T01:12:54.164Z,2.09
2024-01-22T01:15:23.318Z,2.11
2024-01-22T01:17:50.864Z,2.11
2024-01-22T01:20:18.858Z,2.18
2024-01-22T01:22:47.729Z,2.23
2024-01-22T01:25:16.148Z,2.25
2024-01-22T01:27:43.674Z,2.19
2024-01-22T01:30:12.472Z,2.19
2024-01-22T01:32:40.203Z,2.15
2024-01-22T01:35:08.581Z,2.23
2024-01-22T01:37:36.558Z,2.26
2024-01-22T01:40:06.544Z,2.31
2024-01-22T01:42:34.100Z,2.29
2024-01-22T01:45:01.697Z,2.25
2024-01-22T01:47:29.245Z,2.28
2024-01-22T01:49:56.818Z,2.36
2024-01-22T01:52:24.581Z,2.37
2024-01-22T01:54:53.780Z,2.42
2024-01-22T01:57:24.063Z,2.44
2024-01-22T01:59:52.907Z,2.40
2024-01-22T02:02:21.397Z,2.46
2024-01-22T02:04:48.995Z,2.53
2024-01-22T02:07:17.496Z,2.44
2024-01-22T02:09:49.545Z,2.58
2024-01-22T02:12:18.635Z,2.49
2024-01-22T02:14:50.955Z,2.55
2024-01-22T02:17:19.016Z,2.56
2024-01-22T02:19:47.333Z,2.55
2024-01-22T02:22:14.971Z,2.60
2024-01-22T02:24:44.385Z,2.55
2024-01-22T02:27:12.418Z,2.55
2024-01-22T02:29:40.001Z,2.60
2024-01-22T02:32:07.852Z,2.65
2024-01-22T02:34:35.429Z,2.68
2024-01-22T02:37:02.989Z,2.71
2024-01-22T02:39:30.996Z,2.74
2024-01-22T02:42:00.319Z,2.84
2024-01-22T02:44:27.904Z,2.78
2024-01-22T02:46:55.373Z,2.86
2024-01-22T02:49:23.129Z,2.87
2024-01-22T02:51:50.785Z,2.90
2024-01-22T02:54:18.371Z,2.93
2024-01-22T02:56:46.014Z,2.97
2024-01-22T02:59:15.035Z,3.00
2024-01-22T03:01:42.601Z,3.03
2024-01-22T03:04:10.410Z,3.02
2024-01-22T03:06:39.890Z,3.04
2024-01-22T03:09:07.729Z,3.05
2024-01-22T03:11:35.250Z,3.05
2024-01-22T03:14:02.884Z,3.13
2024-01-22T03:16:31.713Z,3.16
2024-01-22T03:19:00.353Z,3.13
2024-01-22T03:21:27.988Z,3.15
2024-01-22T03:23:55.536Z,3.15
2024-01-22T03:26:24.022Z,3.18
2024-01-22T03:28:52.202Z,3.20
2024-01-22T03:31:24.607Z,3.30
2024-01-22T03:33:54.005Z,3.32
2024-01-22T03:36:25.688Z,3.30
2024-01-22T03:38:53.805Z,3.28
2024-01-22T03:41:21.385Z,3.32
2024-01-22T03:43:48.951Z,3.36
2024-01-22T03:46:17.503Z,3.39
2024-01-22T03:48:45.135Z,3.38
2024-01-22T03:51:14.406Z,3.43
2024-01-22T03:53:41.983Z,3.40
2024-01-22T03:56:09.810Z,3.41
2024-01-22T03:58:37.693Z,3.47
2024-01-22T04:01:05.451Z,3.50
2024-01-22T04:03:33.663Z,3.54
2024-01-22T04:06:01.630Z,3.61
2024-01-22T04:08:30.489Z,3.59
2024-01-22T04:10:57.964Z,3.57
2024-01-22T04:13:32.407Z,3.66
2024-01-22T04:16:02.918Z,3.68
2024-01-22T04:18:30.774Z,3.71
2024-01-22T04:20:58.841Z,3.82
2024-01-22T04:23:26.482Z,3.84
2024-01-22T04:25:55.404Z,3.81
2024-01-22T04:28:22.882Z,3.74
2024-01-22T04:30:50.356Z,3.76
2024-01-22T04:33:17.971Z,3.81
2024-01-22T04:35:45.823Z,3.77
2024-01-22T04:38:13.537Z,3.78
2024-01-22T04:40:41.100Z,3.77
2024-01-22T04:43:09.990Z,3.85
2024-01-22T04:45:37.511Z,3.92
2024-01-22T04:48:05.448Z,3.91
2024-01-22T04:50:33.016Z,3.89
2024-01-22T04:53:00.452Z,3.92
2024-01-22T04:55:31.321Z,3.96
2024-01-22T04:58:02.051Z,4.03
2024-01-22T05:00:33.278Z,4.00
2024-01-22T05:03:05.499Z,3.99
2024-01-22T05:05:33.413Z,4.01
2024-01-22T05:08:01.028Z,4.07
2024-01-22T05:10:28.643Z,4.16
2024-01-22T05:12:56.439Z,4.16
2024-01-22T05:15:24.013Z,4.14
2024-01-22T05:17:53.190Z,4.10
2024-01-22T05:20:20.864Z,4.09
2024-01-22T05:22:48.440Z,4.15
2024-01-22T05:25:16.411Z,4.17
2024-01-22T05:27:46.611Z,4.20
2024-01-22T05:30:15.680Z,4.20
2024-01-22T05:32:48.030Z,4.18
2024-01-22T05:35:17.511Z,4.27
2024-01-22T05:37:45.264Z,4.22
2024-01-22T05:40:14.824Z,4.25
2024-01-22T05:42:43.856Z,4.28
2024-01-22T05:45:12.990Z,4.41
2024-01-22T05:47:43.721Z,4.42
2024-01-22T05:50:11.675Z,4.39
2024-01-22T05:52:40.656Z,4.46
2024-01-22T05:55:09.298Z,4.43
2024-01-22T05:57:36.860Z,4.45
2024-01-22T06:00:10.672Z,4.49
2024-01-22T06:02:40.081Z,4.55
2024-01-22T06:05:08.416Z,4.64
2024-01-22T06:07:37.216Z,4.72
2024-01-22T06:10:09.058Z,4.79
2024-01-22T06:12:37.130Z,4.72
2024-01-22T06:15:05.699Z,4.84
2024-01-22T06:17:34.175Z,4.86
2024-01-22T06:20:02.676Z,4.97
2024-01-22T06:22:31.313Z,5.03
2024-01-22T06:24:58.887Z,4.98
2024-01-22T06:27:28.000Z,5.07
2024-01-22T06:29:58.921Z,5.08
2024-01-22T06:32:27.931Z,5.26
2024-01-22T06:34:57.225Z,5.35
2024-01-22T06:37:25.499Z,5.45
2024-01-22T06:39:53.726Z,5.46
2024-01-22T06:42:27.785Z,5.51
2024-01-22T06:45:04.213Z,5.59
2024-01-22T06:47:32.016Z,5.65
2024-01-22T06:50:01.385Z,5.67
2024-01-22T06:52:29.005Z,5.67
2024-01-22T06:54:57.233Z,5.76
2024-01-22T06:57:24.913Z,5.77
2024-01-22T06:59:56.028Z,5.85
2024-01-22T07:02:27.996Z,5.91
2024-01-22T07:04:57.187Z,5.96
2024-01-22T07:07:25.286Z,6.04
2024-01-22T07:09:53.069Z,6.08
2024-01-22T07:12:21.999Z,6.12
2024-01-22T07:14:49.811Z,6.17
2024-01-22T07:17:20.556Z,6.28
2024-01-22T07:19:49.873Z,6.29
2024-01-22T07:22:18.476Z,6.32
2024-01-22T07:24:49.583Z,6.29
2024-01-22T07:27:17.490Z,6.39
2024-01-22T07:29:45.370Z,6.48
2024-01-22T07:32:13.619Z,6.43
2024-01-22T07:34:41.362Z,6.42
2024-01-22T07:37:10.397Z,6.53
2024-01-22T07:39:38.083Z,6.45
2024-01-22T07:42:06.166Z,6.47
2024-01-22T07:44:59.391Z,6.49
2024-01-22T07:47:27.508Z,6.38
2024-01-22T07:49:55.381Z,6.34
2024-01-22T07:52:25.048Z,6.40
2024-01-22T07:54:52.783Z,6.42
2024-01-22T07:57:20.460Z,6.44
2024-01-22T07:59:48.611Z,6.42
2024-01-22T08:02:16.702Z,6.41
2024-01-22T08:04:44.501Z,6.39
2024-01-22T08:07:12.494Z,6.51
2024-01-22T08:09:42.232Z,6.53
2024-01-22T08:12:09.950Z,6.50
2024-01-22T08:14:38.082Z,6.58
2024-01-22T08:17:06.221Z,6.45
2024-01-22T08:19:36.024Z,6.36
2024-01-22T08:22:04.130Z,6.29
2024-01-22T08:24:32.141Z,6.04
2024-01-22T08:27:02.247Z,5.97
2024-01-22T08:29:29.946Z,5.75
2024-01-22T08:31:57.633Z,5.62
2024-01-22T08:34:25.489Z,5.57
2024-01-22T08:36:53.475Z,5.54
2024-01-22T08:39:21.342Z,5.50
2024-01-22T08:41:49.216Z,5.40
2024-01-22T08:44:18.566Z,5.39
2024-01-22T08:46:46.684Z,5.22
2024-01-22T08:49:14.635Z,5.17
2024-01-22T08:51:43.994Z,5.08
2024-01-22T08:54:11.783Z,5.06
2024-01-22T08:56:39.688Z,5.01
2024-01-22T08:59:11.421Z,4.99
2024-01-22T09:01:40.787Z,4.90
2024-01-22T09:04:08.408Z,4.87
2024-01-22T09:06:39.376Z,4.95
2024-01-22T09:09:10.689Z,4.93
2024-01-22T09:11:38.541Z,4.95
2024-01-22T09:14:06.290Z,4.90
2024-01-22T09:16:33.962Z,4.95
2024-01-22T09:19:05.329Z,4.98
2024-01-22T09:21:34.612Z,4.92
2024-01-22T09:24:02.686Z,4.95
2024-01-22T09:26:30.397Z,4.87
2024-01-22T09:28:58.171Z,4.82
2024-01-22T09:31:26.019Z,4.86
2024-01-22T09:33:55.367Z,4.85
2024-01-22T09:36:24.645Z,4.82
2024-01-22T09:38:52.609Z,4.81
2024-01-22T09:41:20.704Z,4.93
2024-01-22T09:43:49.741Z,4.99
2024-01-22T09:46:17.510Z,4.95
2024-01-22T09:48:45.771Z,4.92
2024-01-22T09:51:15.187Z,5.06
2024-01-22T09:53:48.792Z,5.02
2024-01-22T09:56:20.985Z,5.07
2024-01-22T09:58:57.027Z,5.19
2024-01-22T10:01:25.620Z,5.29
2024-01-22T10:03:58.695Z,5.38
2024-01-22T10:06:29.409Z,5.54
2024-01-22T10:09:01.579Z,5.49
2024-01-22T10:11:29.658Z,5.59
2024-01-22T10:13:57.996Z,5.47
2024-01-22T10:16:26.523Z,5.62
2024-01-22T10:18:58.989Z,5.73
2024-01-22T10:21:27.970Z,5.72
2024-01-22T10:24:04.919Z,5.90
2024-01-22T10:26:38.357Z,5.87
2024-01-22T10:29:17.351Z,6.00
2024-01-22T10:31:56.319Z,6.19
2024-01-22T10:34:25.385Z,6.27
2024-01-22T10:37:08.401Z,6.31
2024-01-22T10:40:37.895Z,6.47
2024-01-22T10:43:25.770Z,6.59
2024-01-22T10:45:58.388Z,6.57
2024-01-22T10:48:38.062Z,6.61
2024-01-22T10:51:13.862Z,6.56
2024-01-22T10:53:46.492Z,6.72
2024-01-22T10:59:09.454Z,6.79
2024-01-22T11:01:38.465Z,6.81
2024-01-22T11:04:12.165Z,6.83
2024-01-22T11:06:43.939Z,7.02
2024-01-22T11:09:13.627Z,7.11
2024-01-22T11:11:44.588Z,7.19
2024-01-22T11:14:12.321Z,7.21
2024-01-22T11:16:40.440Z,7.29
2024-01-22T11:19:09.323Z,7.39
2024-01-22T11:21:39.786Z,7.53
2024-01-22T11:24:13.885Z,7.66
2024-01-22T11:27:03.310Z,7.67
2024-01-22T11:29:31.751Z,7.69
2024-01-22T11:32:01.511Z,7.69
2024-01-22T11:34:47.166Z,7.88
2024-01-22T11:37:34.298Z,7.89
2024-01-22T11:40:02.350Z,7.92
2024-01-22T11:42:32.503Z,8.12
2024-01-22T11:45:13.366Z,8.32
2024-01-22T11:47:43.183Z,8.38
2024-01-22T11:50:12.308Z,8.52
2024-01-22T11:52:40.404Z,8.49
2024-01-22T11:55:10.078Z,8.47
2024-01-22T11:57:41.320Z,8.55
2024-01-22T12:00:20.915Z,8.55
2024-01-22T12:02:51.302Z,8.51
2024-01-22T12:05:20.965Z,8.55
2024-01-22T12:07:53.048Z,8.57
2024-01-22T12:10:22.689Z,8.53
2024-01-22T12:12:53.518Z,8.61
2024-01-22T12:15:22.822Z,8.50
2024-01-22T12:17:51.590Z,8.54
2024-01-22T12:20:20.535Z,8.55
2024-01-22T12:22:56.696Z,8.59
2024-01-22T12:25:24.410Z,8.63
2024-01-22T12:27:53.870Z,8.57
2024-01-22T12:30:21.897Z,8.63
2024-01-22T12:32:54.273Z,8.68
2024-01-22T12:35:23.832Z,8.61
2024-01-22T12:37:53.362Z,8.54
2024-01-22T12:40:21.720Z,8.55
2024-01-22T12:42:51.987Z,8.61
2024-01-22T12:45:23.140Z,8.67
2024-01-22T12:47:51.313Z,8.75
2024-01-22T12:50:20.256Z,8.78
2024-01-22T12:52:49.032Z,8.67
2024-01-22T12:55:17.532Z,8.65
2024-01-22T12:57:46.468Z,8.60
2024-01-22T13:00:16.962Z,8.65
2024-01-22T13:02:46.422Z,8.65
2024-01-22T13:05:14.904Z,8.59
2024-01-22T13:07:42.661Z,8.67
2024-01-22T13:10:10.714Z,8.66
2024-01-22T13:12:38.544Z,8.67
2024-01-22T13:15:08.507Z,8.68
2024-01-22T13:17:36.284Z,8.66
2024-01-22T13:20:07.609Z,8.76
2024-01-22T13:22:36.395Z,8.73
2024-01-22T13:25:05.912Z,8.87
2024-01-22T13:27:37.068Z,8.90
2024-01-22T13:30:06.040Z,8.88
2024-01-22T13:32:35.357Z,8.92
2024-01-22T13:35:04.241Z,8.90
2024-01-22T13:37:34.738Z,8.86
2024-01-22T13:40:06.416Z,8.74
2024-01-22T13:42:34.326Z,8.77
2024-01-22T13:45:02.095Z,8.87
2024-01-22T13:47:37.270Z,8.73
2024-01-22T13:50:07.796Z,8.91
2024-01-22T13:52:37.178Z,8.90
2024-01-22T13:55:06.591Z,8.95
2024-01-22T13:57:34.423Z,8.88
2024-01-22T14:00:03.306Z,8.91
2024-01-22T14:02:32.164Z,8.88
2024-01-22T14:05:01.365Z,8.95
2024-01-22T14:07:29.431Z,8.90
2024-01-22T14:09:58.769Z,8.90
2024-01-22T14:12:26.729Z,8.91
2024-01-22T14:14:54.865Z,8.83
2024-01-22T14:17:22.641Z,8.86
2024-01-22T14:19:50.434Z,8.89
2024-01-22T14:22:21.393Z,8.98
2024-01-22T14:24:50.035Z,8.94
2024-01-22T14:27:20.339Z,9.00
2024-01-22T14:29:49.819Z,8.94
2024-01-22T14:32:18.045Z,8.94
2024-01-22T14:34:46.003Z,8.94
2024-01-22T14:37:15.602Z,8.96
2024-01-22T14:39:46.067Z,8.98
2024-01-22T14:42:13.709Z,8.95
2024-01-22T14:45:09.708Z,9.06
2024-01-22T14:47:40.641Z,9.04
2024-01-22T14:50:12.159Z,9.02
2024-01-22T14:55:26.445Z,8.98
2024-01-22T14:57:54.354Z,8.97
2024-01-22T15:00:24.001Z,9.00
2024-01-22T15:02:52.085Z,9.04
2024-01-22T15:05:20.202Z,9.06
2024-01-22T15:07:48.876Z,8.99
2024-01-22T15:10:17.210Z,9.02
2024-01-22T15:12:45.102Z,9.02
2024-01-22T15:15:13.467Z,9.05
2024-01-22T15:17:43.303Z,9.10
2024-01-22T15:20:12.762Z,9.22
2024-01-22T15:22:40.511Z,9.13
2024-01-22T15:25:10.456Z,9.17
2024-01-22T15:27:38.169Z,9.16
2024-01-22T15:30:07.663Z,9.22
2024-01-22T15:32:36.468Z,9.21
2024-01-22T15:35:08.055Z,9.17
2024-01-22T15:37:38.385Z,9.03
2024-01-22T15:40:07.473Z,9.01
2024-01-22T15:42:35.827Z,8.90
2024-01-22T15:45:07.518Z,8.82
2024-01-22T15:47:35.844Z,8.80
2024-01-22T15:50:03.832Z,8.76
2024-01-22T15:52:32.922Z,8.81
2024-01-22T15:55:00.625Z,8.79
2024-01-22T15:57:28.845Z,8.74
2024-01-22T15:59:57.209Z,8.78
2024-01-22T16:02:24.813Z,8.73
2024-01-22T16:04:52.740Z,8.70
2024-01-22T16:07:22.785Z,8.65
2024-01-22T16:09:52.423Z,8.61
2024-01-22T16:12:20.206Z,8.53
2024-01-22T16:14:48.107Z,8.47
2024-01-22T16:17:16.149Z,8.45
2024-01-22T16:19:43.955Z,8.42
2024-01-22T16:22:11.979Z,8.42
2024-01-22T16:24:40.070Z,8.48
2024-01-22T16:27:10.758Z,8.39
2024-01-22T16:29:39.636Z,8.47
2024-01-22T16:32:07.673Z,8.34
2024-01-22T16:34:36.364Z,8.39
2024-01-22T16:37:04.822Z,8.40
2024-01-22T16:39:38.840Z,8.43
2024-01-22T16:42:07.456Z,8.42
2024-01-22T16:44:36.716Z,8.52
2024-01-22T16:47:05.009Z,8.47
2024-01-22T16:49:32.967Z,8.44
2024-01-22T16:52:02.364Z,8.46
2024-01-22T16:54:30.013Z,8.50
2024-01-22T16:56:58.819Z,8.58
2024-01-22T16:59:26.338Z,8.59
2024-01-22T17:01:57.556Z,8.69
2024-01-22T17:04:27.787Z,8.71
2024-01-22T17:07:05.176Z,8.77
2024-01-22T17:09:32.991Z,8.72
2024-01-22T17:12:02.162Z,8.84
2024-01-22T17:14:31.574Z,8.79
2024-01-22T17:17:01.221Z,8.81
2024-01-22T17:19:29.839Z,8.74
2024-01-22T17:21:57.619Z,8.80
2024-01-22T17:24:28.057Z,8.92
2024-01-22T17:26:55.864Z,8.88
2024-01-22T17:29:24.020Z,8.90
2024-01-22T17:31:51.594Z,8.88
2024-01-22T17:34:20.860Z,8.90
2024-01-22T17:36:49.562Z,8.87
2024-01-22T17:39:19.226Z,8.83
2024-01-22T17:41:46.895Z,8.83
2024-01-22T17:44:15.410Z,8.83
2024-01-22T17:46:44.857Z,8.86
2024-01-22T17:49:12.632Z,8.68
2024-01-22T17:51:41.562Z,8.63
2024-01-22T17:54:09.869Z,8.54
2024-01-22T17:56:40.033Z,8.57
2024-01-22T17:59:07.650Z,8.53
2024-01-22T18:01:35.211Z,8.56
2024-01-22T18:04:02.819Z,8.59
2024-01-22T18:06:30.489Z,8.58
2024-01-22T18:09:00.183Z,8.68
2024-01-22T18:11:28.095Z,8.50
2024-01-22T18:13:55.889Z,8.49
2024-01-22T18:16:23.451Z,8.51
2024-01-22T18:18:51.450Z,8.48
2024-01-22T18:21:19.325Z,8.48
2024-01-22T18:23:46.965Z,8.46
2024-01-22T18:26:16.057Z,8.39
2024-01-22T18:28:43.952Z,8.36
2024-01-22T18:31:12.884Z,8.30
2024-01-22T18:33:42.397Z,8.34
2024-01-22T18:36:10.303Z,8.25
2024-01-22T18:38:38.058Z,8.31
2024-01-22T18:41:05.951Z,8.30
2024-01-22T18:43:34.798Z,8.27
2024-01-22T18:46:09.550Z,8.22
2024-01-22T18:48:41.472Z,8.22
2024-01-22T18:51:09.124Z,8.26
2024-01-22T18:53:37.235Z,8.32
2024-01-22T18:56:05.286Z,8.36
2024-01-22T18:58:32.855Z,8.33
2024-01-22T19:01:02.063Z,8.30
2024-01-22T19:03:30.930Z,8.18
2024-01-22T19:06:01.782Z,8.18
2024-01-22T19:08:29.628Z,8.18
2024-01-22T19:10:57.252Z,8.21
2024-01-22T19:13:24.809Z,8.16
2024-01-22T19:15:52.368Z,8.16
2024-01-22T19:18:21.426Z,8.24
2024-01-22T19:20:49.344Z,8.23
2024-01-22T19:23:16.969Z,8.25
2024-01-22T19:25:44.878Z,8.13
2024-01-22T19:28:13.308Z,8.02
2024-01-22T19:30:40.828Z,8.03
2024-01-22T19:33:08.483Z,8.05
2024-01-22T19:35:37.352Z,8.04
2024-01-22T19:38:05.203Z,8.01
2024-01-22T19:40:34.576Z,7.98
2024-01-22T19:43:03.417Z,7.95
2024-01-22T19:45:33.890Z,7.93
2024-01-22T19:48:01.700Z,7.92
2024-01-22T19:50:30.127Z,7.91
2024-01-22T19:52:59.449Z,7.95
2024-01-22T19:55:26.929Z,7.84
2024-01-22T19:57:53.695Z,7.82
2024-01-22T20:00:21.755Z,7.93
2024-01-22T20:02:49.559Z,7.72
2024-01-22T20:05:17.249Z,7.70
2024-01-22T20:07:46.310Z,7.63
2024-01-22T20:10:15.480Z,7.81
2024-01-22T20:12:43.015Z,7.87
2024-01-22T20:15:11.516Z,7.76
2024-01-22T20:17:39.200Z,7.76
2024-01-22T20:20:08.546Z,7.81
2024-01-22T20:22:36.142Z,7.93
2024-01-22T20:25:04.030Z,7.93
2024-01-22T20:27:32.963Z,7.92
2024-01-22T20:30:00.538Z,7.90
2024-01-22T20:32:28.307Z,7.93
2024-01-22T20:34:58.260Z,7.82
2024-01-22T20:37:26.404Z,7.65
2024-01-22T20:39:54.048Z,7.59
2024-01-22T20:42:24.695Z,7.50
2024-01-22T20:44:54.178Z,7.49
2024-01-22T20:47:21.857Z,7.48
2024-01-22T20:49:49.573Z,7.43
2024-01-22T20:52:17.210Z,7.41
2024-01-22T20:54:44.762Z,7.40
2024-01-22T20:57:12.570Z,7.47
2024-01-22T20:59:40.052Z,7.50
2024-01-22T21:02:08.967Z,7.59
2024-01-22T21:04:36.607Z,7.43
2024-01-22T21:07:04.698Z,7.36
2024-01-22T21:09:33.801Z,7.40
2024-01-22T21:12:01.845Z,7.35
2024-01-22T21:14:30.954Z,7.20
2024-01-22T21:16:58.805Z,7.28
2024-01-22T21:19:28.311Z,7.38
2024-01-22T21:21:55.916Z,7.25
2024-01-22T21:24:24.038Z,7.22
2024-01-22T21:26:51.699Z,7.22
2024-01-22T21:29:19.710Z,7.20
2024-01-22T21:31:47.753Z,7.26
2024-01-22T21:34:15.386Z,7.29
2024-01-22T21:36:44.276Z,7.24
2024-01-22T21:39:13.791Z,7.16
2024-01-22T21:41:41.416Z,7.14
2024-01-22T21:44:09.019Z,7.07
2024-01-22T21:46:36.579Z,6.98
2024-01-22T21:49:04.400Z,6.97
2024-01-22T21:51:32.141Z,7.01
2024-01-22T21:54:01.133Z,7.05
2024-01-22T21:56:29.886Z,7.05
2024-01-22T21:58:58.081Z,7.04
2024-01-22T22:01:25.953Z,7.10
2024-01-22T22:03:53.998Z,7.13
2024-01-22T22:06:24.585Z,7.13
2024-01-22T22:08:53.170Z,7.04
2024-01-22T22:11:22.194Z,7.03
2024-01-22T22:13:50.712Z,6.82
2024-01-22T22:16:18.314Z,6.82
2024-01-22T22:18:47.153Z,6.73
2024-01-22T22:21:15.069Z,6.74
2024-01-22T22:23:42.739Z,6.74
2024-01-22T22:26:10.391Z,6.73
2024-01-22T22:28:40.447Z,6.72
2024-01-22T22:31:08.870Z,6.68
2024-01-22T22:33:36.602Z,6.71
2024-01-22T22:36:04.713Z,6.72
2024-01-22T22:38:32.399Z,6.71
2024-01-22T22:40:59.949Z,6.72
2024-01-22T22:43:27.501Z,6.62
2024-01-22T22:46:00.679Z,6.64
2024-01-22T22:48:28.417Z,6.60
2024-01-22T22:50:56.099Z,6.56
2024-01-22T22:53:23.726Z,6.61
2024-01-22T22:55:51.245Z,6.49
2024-01-22T22:58:18.950Z,6.53
2024-01-22T23:00:46.749Z,6.48
2024-01-22T23:03:15.818Z,6.54
2024-01-22T23:05:43.574Z,6.52
2024-01-22T23:08:11.122Z,6.45
2024-01-22T23:10:38.638Z,6.41
2024-01-22T23:13:06.263Z,6.34
2024-01-22T23:15:33.996Z,6.31
2024-01-22T23:18:01.674Z,6.30
2024-01-22T23:20:30.649Z,6.37
2024-01-22T23:22:58.415Z,6.40
2024-01-22T23:25:30.392Z,6.29
2024-01-22T23:27:57.913Z,6.32
2024-01-22T23:30:25.995Z,6.37
2024-01-22T23:32:53.710Z,6.33
2024-01-22T23:35:21.748Z,6.37
2024-01-22T23:37:52.871Z,6.38
2024-01-22T23:40:20.431Z,6.35
2024-01-22T23:42:47.904Z,6.39
2024-01-22T23:45:15.591Z,6.45
2024-01-22T23:47:43.152Z,6.46
2024-01-22T23:50:11.936Z,6.41
2024-01-22T23:52:39.455Z,6.34
2024-01-22T23:55:11.074Z,6.39
2024-01-22T23:57:38.643Z,6.41
